Time;durP1;ratioP1;P1;durP2;ratioP2;P2;SDS_P1;SDS_P2;PMS_P1;PMS_P2;Temp;Humidity;BMP_temperature;BMP_pressure;BME280_temperature;BME280_humidity;BME280_pressure;Samples;Min_cycle;Max_cycle;Signal;HPM_P1;HPM_P2
2021/12/15 00:01:10;;;;;;;15.80;12.70;;;7.70;86.80;;;;;;4997517;28;20464;-50
2021/12/15 00:03:38;;;;;;;14.67;11.50;;;7.70;86.90;;;;;;4997193;28;20663;-50
2021/12/15 00:06:11;;;;;;;15.33;11.00;;;7.70;87.00;;;;;;4979031;28;20487;-50
2021/12/15 00:08:41;;;;;;;16.80;12.23;;;7.70;86.90;;;;;;4985051;28;20452;-50
2021/12/15 00:11:08;;;;;;;16.13;11.60;;;7.70;86.90;;;;;;4996480;28;20464;-50
2021/12/15 00:13:37;;;;;;;15.47;11.37;;;7.70;86.90;;;;;;5001924;28;20473;-50
2021/12/15 00:16:06;;;;;;;17.20;11.03;;;7.70;86.80;;;;;;4994967;28;20523;-50
2021/12/15 00:18:33;;;;;;;16.73;11.90;;;7.70;86.70;;;;;;5001002;28;20456;-50
2021/12/15 00:21:00;;;;;;;14.23;10.80;;;7.70;86.70;;;;;;4985870;28;20456;-50
2021/12/15 00:23:27;;;;;;;13.73;10.13;;;7.70;86.60;;;;;;4986340;28;20465;-50
2021/12/15 00:25:54;;;;;;;14.90;10.73;;;7.70;86.60;;;;;;5001458;28;20710;-50
2021/12/15 00:28:21;;;;;;;18.90;11.80;;;7.70;86.50;;;;;;4981822;28;20460;-51
2021/12/15 00:30:48;;;;;;;16.07;10.03;;;7.70;86.70;;;;;;4981410;28;20466;-51
2021/12/15 00:33:15;;;;;;;15.20;9.87;;;7.80;86.70;;;;;;4999872;28;20464;-52
2021/12/15 00:35:41;;;;;;;14.93;11.00;;;7.80;86.70;;;;;;4982431;28;20471;-53
2021/12/15 00:38:10;;;;;;;18.83;13.17;;;7.70;86.70;;;;;;5000497;28;21353;-50
2021/12/15 00:40:38;;;;;;;17.33;11.63;;;7.70;86.70;;;;;;4999545;28;20810;-50
2021/12/15 00:43:05;;;;;;;16.23;11.60;;;7.80;86.80;;;;;;4980939;28;20527;-50
2021/12/15 00:45:32;;;;;;;15.30;11.73;;;7.80;86.40;;;;;;5002159;28;20831;-50
2021/12/15 00:47:59;;;;;;;15.53;11.27;;;7.80;86.40;;;;;;5002224;28;20483;-50
2021/12/15 00:50:32;;;;;;;16.17;11.20;;;7.80;86.50;;;;;;5000269;28;21007;-50
2021/12/15 00:52:59;;;;;;;15.00;10.27;;;7.80;86.50;;;;;;5001081;28;20461;-50
2021/12/15 00:55:28;;;;;;;16.30;12.67;;;7.80;86.60;;;;;;5002811;28;20452;-50
2021/12/15 00:57:55;;;;;;;15.87;11.53;;;7.80;86.90;;;;;;5001483;28;20484;-50
2021/12/15 01:00:27;;;;;;;18.97;12.23;;;7.80;87.00;;;;;;5005566;28;20452;-50
2021/12/15 01:02:54;;;;;;;13.60;10.10;;;7.70;87.00;;;;;;5002830;28;20460;-50
2021/12/15 01:05:24;;;;;;;17.20;12.73;;;7.80;87.00;;;;;;4986675;28;20456;-50
2021/12/15 01:07:52;;;;;;;15.13;11.77;;;7.80;87.00;;;;;;4984810;28;20464;-50
2021/12/15 01:10:28;;;;;;;15.00;11.87;;;7.70;87.10;;;;;;5005106;28;20873;-50
2021/12/15 01:21:14;;;;;;;15.67;11.60;;;7.70;87.30;;;;;;4988227;28;20494;-50
2021/12/15 01:23:41;;;;;;;14.53;12.50;;;7.80;87.30;;;;;;4990117;28;20471;-50
2021/12/15 01:26:12;;;;;;;18.00;12.70;;;7.80;87.10;;;;;;4982689;28;20563;-50
2021/12/15 01:28:39;;;;;;;21.47;15.73;;;7.90;87.10;;;;;;4973912;28;20970;-50
2021/12/15 01:31:08;;;;;;;16.40;13.73;;;7.90;87.00;;;;;;4989663;28;20464;-50
2021/12/15 01:33:36;;;;;;;18.90;13.20;;;7.90;87.10;;;;;;5000697;28;20453;-50
2021/12/15 01:36:06;;;;;;;19.83;13.20;;;7.80;87.40;;;;;;5003092;28;21025;-50
2021/12/15 01:38:35;;;;;;;23.43;14.63;;;7.80;87.50;;;;;;4985216;28;20980;-50
2021/12/15 01:41:04;;;;;;;21.57;14.70;;;7.80;87.60;;;;;;5000156;28;20471;-50
2021/12/15 01:43:51;;;;;;;25.37;15.10;;;7.80;87.70;;;;;;5000200;28;21484;-50
2021/12/15 01:49:11;;;;;;;19.67;13.60;;;7.80;88.10;;;;;;5001858;28;20464;-50
2021/12/15 01:51:38;;;;;;;21.23;13.23;;;7.80;88.20;;;;;;4998959;28;20460;-50
2021/12/15 01:54:06;;;;;;;18.93;13.90;;;7.80;88.20;;;;;;5003996;28;21010;-50
2021/12/15 01:56:33;;;;;;;18.87;13.20;;;7.80;88.20;;;;;;4986398;28;20485;-50
2021/12/15 01:59:00;;;;;;;20.73;13.40;;;7.80;88.20;;;;;;4991348;28;20542;-50
2021/12/15 02:01:28;;;;;;;21.80;14.03;;;7.80;88.10;;;;;;4998722;28;20465;-50
2021/12/15 02:03:56;;;;;;;19.60;12.60;;;7.80;88.20;;;;;;4999208;28;20876;-50
2021/12/15 02:06:41;;;;;;;18.27;12.70;;;7.80;88.10;;;;;;5000873;28;20535;-50
2021/12/15 02:09:08;;;;;;;18.77;14.93;;;7.80;88.20;;;;;;5000789;28;20531;-50
2021/12/15 02:11:35;;;;;;;17.83;12.73;;;7.80;88.20;;;;;;4983809;28;20457;-50
2021/12/15 02:14:02;;;;;;;14.97;12.43;;;7.80;88.20;;;;;;4979359;28;20947;-50
2021/12/15 02:16:29;;;;;;;19.63;13.50;;;7.80;88.30;;;;;;4983682;28;21048;-50
2021/12/15 02:18:56;;;;;;;19.33;13.20;;;7.80;88.30;;;;;;4984424;28;20522;-50
2021/12/15 02:21:25;;;;;;;21.20;13.30;;;7.70;88.40;;;;;;4989323;28;21067;-50
2021/12/15 02:23:56;;;;;;;17.83;12.30;;;7.70;88.30;;;;;;5000087;28;20539;-50
2021/12/15 02:26:31;;;;;;;18.83;12.60;;;7.80;88.30;;;;;;4999631;28;20464;-50
2021/12/15 02:29:01;;;;;;;16.10;12.33;;;7.80;88.20;;;;;;4998443;28;20464;-50
2021/12/15 02:39:15;;;;;;;18.57;11.70;;;7.80;88.40;;;;;;5000708;28;20456;-50
2021/12/15 02:41:44;;;;;;;19.30;12.03;;;7.80;88.40;;;;;;4989624;28;20463;-50
2021/12/15 02:44:16;;;;;;;17.33;12.13;;;7.80;88.50;;;;;;5001972;28;20452;-50
2021/12/15 02:46:44;;;;;;;19.50;11.73;;;7.80;88.50;;;;;;5002110;28;20460;-50
2021/12/15 02:49:15;;;;;;;19.50;13.77;;;7.70;88.40;;;;;;4987539;28;20464;-50
2021/12/15 02:51:46;;;;;;;13.73;10.67;;;7.70;88.60;;;;;;4988871;28;20467;-50
2021/12/15 02:54:15;;;;;;;17.47;12.23;;;7.70;88.60;;;;;;5001943;28;20471;-50
2021/12/15 02:56:45;;;;;;;16.03;11.53;;;7.70;88.70;;;;;;4986338;28;20488;-50
2021/12/15 02:59:15;;;;;;;14.23;11.23;;;7.70;88.70;;;;;;5001451;28;20473;-50
2021/12/15 03:07:04;;;;;;;18.17;12.37;;;7.80;88.80;;;;;;4998746;28;20454;-50
2021/12/15 03:15:23;;;;;;;19.40;14.57;;;7.80;88.70;;;;;;4999862;28;20903;-50
2021/12/15 03:18:16;;;;;;;19.80;13.80;;;7.80;88.70;;;;;;4983194;28;20503;-50
2021/12/15 03:20:55;;;;;;;19.20;12.83;;;7.80;88.60;;;;;;5000931;28;20475;-50
2021/12/15 03:23:37;;;;;;;18.03;12.00;;;7.80;88.50;;;;;;4999045;28;20830;-50
2021/12/15 03:26:04;;;;;;;16.10;11.70;;;7.80;88.50;;;;;;4999442;28;20449;-50
2021/12/15 03:39:24;;;;;;;16.67;12.27;;;7.80;88.10;;;;;;4983156;28;20476;-50
2021/12/15 03:41:59;;;;;;;19.93;13.90;;;7.80;88.10;;;;;;4982459;28;20848;-50
2021/12/15 03:44:27;;;;;;;18.77;12.77;;;7.80;88.20;;;;;;5000205;28;20743;-50
2021/12/15 03:46:54;;;;;;;20.93;13.33;;;7.80;88.20;;;;;;4998846;28;20910;-47
2021/12/15 03:49:21;;;;;;;19.93;12.43;;;7.80;88.10;;;;;;4998588;28;20535;-47
2021/12/15 03:51:48;;;;;;;14.83;12.60;;;7.80;88.10;;;;;;4999476;28;20981;-46
2021/12/15 03:54:17;;;;;;;18.20;12.80;;;7.80;87.90;;;;;;5000585;28;20473;-47
2021/12/15 03:56:47;;;;;;;15.80;11.67;;;7.80;88.00;;;;;;4981291;28;20495;-47
2021/12/15 03:59:14;;;;;;;18.60;12.07;;;7.80;88.00;;;;;;5001243;28;20560;-47
2021/12/15 04:01:41;;;;;;;17.80;12.33;;;7.80;88.00;;;;;;5001731;28;20460;-47
2021/12/15 04:04:08;;;;;;;17.57;12.23;;;7.90;87.80;;;;;;4998556;28;20468;-47
2021/12/15 04:06:39;;;;;;;16.87;12.47;;;7.90;87.60;;;;;;4980592;28;20460;-47
2021/12/15 04:09:11;;;;;;;17.40;12.30;;;7.90;87.70;;;;;;4998293;28;20844;-47
2021/12/15 04:11:38;;;;;;;17.23;13.17;;;7.90;87.60;;;;;;4999038;28;20469;-47
2021/12/15 04:14:10;;;;;;;16.60;12.37;;;7.90;87.60;;;;;;4998447;28;20474;-47
2021/12/15 04:16:46;;;;;;;17.20;12.37;;;7.90;87.50;;;;;;4983017;28;20552;-47
2021/12/15 04:19:20;;;;;;;15.80;11.27;;;7.90;87.40;;;;;;4983529;28;20904;-47
2021/12/15 04:21:48;;;;;;;16.23;11.10;;;7.90;87.70;;;;;;4998332;28;20469;-47
2021/12/15 04:24:16;;;;;;;17.43;13.37;;;7.90;87.60;;;;;;4998257;28;20652;-47
2021/12/15 04:26:45;;;;;;;17.40;11.50;;;7.90;87.70;;;;;;5000219;28;20465;-47
2021/12/15 04:29:13;;;;;;;15.83;13.20;;;7.90;87.50;;;;;;4999846;28;20460;-47
2021/12/15 04:32:19;;;;;;;20.77;15.10;;;7.90;87.60;;;;;;5002675;28;20457;-47
2021/12/15 04:34:45;;;;;;;19.20;13.90;;;7.90;87.70;;;;;;4944155;29;20816;-47
2021/12/15 04:37:12;;;;;;;17.60;13.03;;;7.90;87.60;;;;;;4976145;28;20488;-47
2021/12/15 04:39:39;;;;;;;19.10;13.33;;;7.80;87.80;;;;;;4996037;28;21043;-47
2021/12/15 04:42:06;;;;;;;19.63;13.30;;;7.80;88.00;;;;;;5002067;28;20457;-47
2021/12/15 04:44:34;;;;;;;16.70;13.53;;;7.80;88.00;;;;;;4988115;28;20468;-47
2021/12/15 04:47:09;;;;;;;18.33;13.60;;;7.80;88.00;;;;;;4970047;28;20467;-47
2021/12/15 04:49:50;;;;;;;19.60;12.83;;;7.80;88.10;;;;;;4997005;28;20483;-47
2021/12/15 04:52:19;;;;;;;18.00;11.90;;;7.80;87.90;;;;;;4984177;28;20692;-47
2021/12/15 04:54:47;;;;;;;19.17;13.07;;;7.80;88.00;;;;;;4982669;28;20465;-47
2021/12/15 04:57:17;;;;;;;18.07;11.70;;;7.70;88.10;;;;;;4997510;28;20476;-47
2021/12/15 04:59:45;;;;;;;18.10;12.20;;;7.70;88.20;;;;;;4982412;28;20845;-47
2021/12/15 05:02:13;;;;;;;17.13;11.27;;;7.80;88.30;;;;;;4987344;28;20479;-47
2021/12/15 05:04:41;;;;;;;17.70;11.20;;;7.80;88.20;;;;;;4997844;28;20548;-47
2021/12/15 05:07:08;;;;;;;17.60;13.10;;;7.80;88.20;;;;;;4989891;28;20944;-47
2021/12/15 05:09:36;;;;;;;18.47;12.33;;;7.80;88.20;;;;;;4996597;28;20503;-47
2021/12/15 05:12:03;;;;;;;16.70;12.83;;;7.80;88.20;;;;;;4988039;28;20467;-47
2021/12/15 05:14:31;;;;;;;15.40;11.70;;;7.70;88.30;;;;;;4988907;28;20457;-47
2021/12/15 05:16:57;;;;;;;21.07;13.70;;;7.70;88.40;;;;;;4988428;28;20456;-47
2021/12/15 05:19:27;;;;;;;17.30;12.77;;;7.80;88.50;;;;;;4985930;28;20448;-47
2021/12/15 05:21:58;;;;;;;15.70;11.43;;;7.80;88.50;;;;;;4980558;28;20957;-47
2021/12/15 05:26:59;;;;;;;20.97;12.97;;;7.80;88.50;;;;;;5000438;28;20452;-47
2021/12/15 05:29:27;;;;;;;16.23;12.30;;;7.80;88.50;;;;;;4969408;28;20456;-47
2021/12/15 05:31:55;;;;;;;18.70;13.03;;;7.80;88.50;;;;;;4984837;28;20457;-47
2021/12/15 05:34:22;;;;;;;17.90;13.80;;;7.80;88.50;;;;;;4991227;28;20467;-47
2021/12/15 05:36:52;;;;;;;16.97;12.07;;;7.80;88.50;;;;;;4987098;28;20445;-47
2021/12/15 05:39:20;;;;;;;18.30;13.40;;;7.80;88.60;;;;;;5005979;28;20458;-47
2021/12/15 05:41:49;;;;;;;19.50;13.10;;;7.80;88.60;;;;;;5002099;28;20449;-47
2021/12/15 05:44:16;;;;;;;18.37;13.73;;;7.80;88.40;;;;;;5003601;28;20459;-47
2021/12/15 05:46:43;;;;;;;21.87;14.07;;;7.80;88.50;;;;;;4999319;28;20974;-47
2021/12/15 05:49:10;;;;;;;21.70;13.43;;;7.80;88.60;;;;;;5002763;28;20461;-46
2021/12/15 05:51:38;;;;;;;22.47;14.20;;;7.80;88.70;;;;;;5002969;28;20488;-46
2021/12/15 05:54:06;;;;;;;15.07;12.20;;;7.80;88.60;;;;;;5001592;28;20460;-46
2021/12/15 05:56:33;;;;;;;19.63;12.60;;;7.80;88.70;;;;;;5001399;28;20469;-46
2021/12/15 05:59:00;;;;;;;18.33;12.03;;;7.80;88.60;;;;;;5003472;28;20507;-46
2021/12/15 06:01:28;;;;;;;20.23;14.07;;;7.80;88.50;;;;;;5002821;28;21150;-46
2021/12/15 06:03:56;;;;;;;18.03;13.47;;;7.80;88.50;;;;;;4980265;28;20476;-46
2021/12/15 06:06:22;;;;;;;19.63;13.07;;;7.80;88.40;;;;;;4988729;28;20529;-46
2021/12/15 06:08:49;;;;;;;20.23;12.60;;;7.80;88.40;;;;;;5001785;28;20461;-46
2021/12/15 06:11:17;;;;;;;16.53;12.97;;;7.80;88.40;;;;;;5000154;28;20456;-46
2021/12/15 06:13:47;;;;;;;15.97;11.63;;;7.80;88.50;;;;;;5005066;28;20453;-46
2021/12/15 06:16:17;;;;;;;16.07;12.00;;;7.80;88.40;;;;;;5000813;28;20457;-46
2021/12/15 06:18:44;;;;;;;19.53;11.63;;;7.90;88.30;;;;;;5003655;28;20486;-46
2021/12/15 06:21:12;;;;;;;15.67;11.43;;;7.90;88.20;;;;;;4999107;28;20456;-46
2021/12/15 06:23:40;;;;;;;15.40;11.13;;;7.80;88.20;;;;;;4985070;28;20464;-46
2021/12/15 06:26:08;;;;;;;17.50;12.40;;;7.80;88.30;;;;;;5002790;28;20463;-46
2021/12/15 06:28:37;;;;;;;19.33;12.43;;;7.80;88.30;;;;;;5002247;28;20910;-46
2021/12/15 06:31:09;;;;;;;19.27;12.83;;;7.80;88.50;;;;;;5003543;28;20820;-46
2021/12/15 06:33:38;;;;;;;16.57;12.00;;;7.80;88.50;;;;;;5001329;28;20546;-46
2021/12/15 06:36:07;;;;;;;16.93;13.57;;;7.80;88.50;;;;;;4984073;28;20475;-47
2021/12/15 06:38:37;;;;;;;20.70;14.00;;;7.80;88.50;;;;;;4989820;28;20496;-47
2021/12/15 06:41:07;;;;;;;22.83;12.47;;;7.80;88.60;;;;;;4995785;28;20472;-48
2021/12/15 06:43:36;;;;;;;18.73;13.23;;;7.80;88.60;;;;;;5000578;28;20460;-47
2021/12/15 06:57:31;;;;;;;17.20;13.17;;;7.80;88.90;;;;;;5002338;28;20833;-47
2021/12/15 07:00:09;;;;;;;17.00;12.17;;;7.80;88.90;;;;;;4986986;28;20496;-47
2021/12/15 07:02:38;;;;;;;17.90;12.03;;;7.80;88.90;;;;;;4999306;28;20464;-47
2021/12/15 07:05:08;;;;;;;20.87;13.37;;;7.80;89.00;;;;;;5000895;28;20460;-47
2021/12/15 07:07:36;;;;;;;17.00;12.00;;;7.80;89.00;;;;;;5000122;28;20969;-47
2021/12/15 07:10:05;;;;;;;19.33;13.33;;;7.80;88.90;;;;;;5000709;28;20468;-47
2021/12/15 07:12:32;;;;;;;20.13;14.47;;;7.90;88.90;;;;;;4999412;28;20467;-47
2021/12/15 07:14:59;;;;;;;18.20;13.77;;;7.90;88.80;;;;;;5000290;28;20845;-47
2021/12/15 07:17:28;;;;;;;18.33;12.80;;;7.90;88.70;;;;;;4998897;28;20473;-47
2021/12/15 07:22:35;;;;;;;19.27;13.40;;;7.90;88.80;;;;;;5002895;28;20505;-47
2021/12/15 07:25:05;;;;;;;23.83;14.50;;;7.90;88.70;;;;;;4999554;28;20462;-47
2021/12/15 07:27:32;;;;;;;21.07;14.33;;;7.90;88.80;;;;;;4981154;28;20449;-47
2021/12/15 07:29:59;;;;;;;23.80;14.40;;;7.90;88.80;;;;;;4979819;28;20472;-47
2021/12/15 07:32:26;;;;;;;22.03;15.93;;;7.90;88.80;;;;;;4997918;28;20802;-47
2021/12/15 07:34:53;;;;;;;25.20;15.27;;;7.90;88.80;;;;;;4985789;28;20989;-47
2021/12/15 07:37:19;;;;;;;23.83;14.53;;;7.90;88.80;;;;;;4987067;28;20469;-47
2021/12/15 07:39:55;;;;;;;19.80;14.07;;;7.90;88.80;;;;;;4997271;28;20460;-47
2021/12/15 07:42:31;;;;;;;24.03;13.80;;;7.90;88.80;;;;;;5001095;28;20461;-47
2021/12/15 07:44:58;;;;;;;25.47;14.20;;;7.90;88.70;;;;;;4985567;28;23120;-47
2021/12/15 07:47:25;;;;;;;19.53;14.13;;;7.90;88.70;;;;;;4998179;28;20564;-47
2021/12/15 07:49:52;;;;;;;18.57;12.10;;;7.90;88.70;;;;;;4987841;28;20460;-47
2021/12/15 07:52:19;;;;;;;19.10;13.07;;;7.90;88.60;;;;;;4993997;28;20485;-47
2021/12/15 07:54:46;;;;;;;19.13;14.40;;;7.90;88.70;;;;;;4986153;28;20552;-47
2021/12/15 07:57:17;;;;;;;19.43;14.03;;;7.90;88.70;;;;;;5002396;28;20551;-47
2021/12/15 07:59:44;;;;;;;25.33;14.70;;;7.90;88.70;;;;;;4978017;28;20911;-47
2021/12/15 08:02:11;;;;;;;26.73;14.50;;;8.00;88.70;;;;;;5002242;28;20556;-47
2021/12/15 08:04:39;;;;;;;27.33;15.53;;;8.00;88.60;;;;;;5000800;28;20461;-47
2021/12/15 08:07:06;;;;;;;25.73;15.70;;;8.00;88.50;;;;;;4992790;28;20472;-47
2021/12/15 08:09:33;;;;;;;23.23;14.37;;;8.00;88.50;;;;;;4999941;28;20977;-47
2021/12/15 08:12:01;;;;;;;25.40;15.33;;;8.00;88.50;;;;;;4986457;28;20463;-47
2021/12/15 08:14:29;;;;;;;23.60;15.20;;;8.00;88.40;;;;;;4996617;28;20969;-47
2021/12/15 08:16:56;;;;;;;19.33;14.17;;;8.10;88.40;;;;;;5000804;28;21036;-47
2021/12/15 08:19:23;;;;;;;19.93;13.30;;;8.10;88.30;;;;;;4994337;28;21046;-47
2021/12/15 08:21:49;;;;;;;21.97;14.67;;;8.10;88.30;;;;;;4986652;28;20449;-47
2021/12/15 08:24:16;;;;;;;24.23;14.43;;;8.10;88.20;;;;;;4991784;28;20995;-47
2021/12/15 08:26:43;;;;;;;20.83;13.90;;;8.10;88.10;;;;;;4999123;28;20452;-47
2021/12/15 08:29:10;;;;;;;25.43;14.43;;;8.10;88.00;;;;;;5001582;28;20467;-47
2021/12/15 08:31:37;;;;;;;23.77;14.80;;;8.10;88.00;;;;;;4985935;28;20947;-47
2021/12/15 08:34:07;;;;;;;19.30;13.10;;;8.10;88.10;;;;;;4988598;28;20953;-47
2021/12/15 08:36:36;;;;;;;23.60;15.90;;;8.10;88.20;;;;;;5000913;28;20958;-47
2021/12/15 08:39:03;;;;;;;16.53;11.43;;;8.10;88.30;;;;;;4997658;28;20499;-47
2021/12/15 08:41:30;;;;;;;16.80;10.80;;;8.10;88.30;;;;;;4999377;28;20467;-47
2021/12/15 08:43:58;;;;;;;17.37;10.83;;;8.20;88.00;;;;;;5001508;28;20841;-47
2021/12/15 08:46:29;;;;;;;17.60;10.57;;;8.20;87.90;;;;;;4989785;28;20457;-47
2021/12/15 08:48:57;;;;;;;16.93;10.43;;;8.20;87.90;;;;;;4979571;28;20452;-47
2021/12/15 08:51:26;;;;;;;16.60;11.03;;;8.20;87.80;;;;;;4999362;28;20475;-47
2021/12/15 08:53:58;;;;;;;14.73;8.63;;;8.30;87.40;;;;;;4999616;28;20540;-47
2021/12/15 08:56:26;;;;;;;14.60;10.50;;;8.30;87.10;;;;;;4998564;28;21025;-47
2021/12/15 08:58:53;;;;;;;14.00;9.50;;;8.30;86.90;;;;;;4995860;28;20496;-47
2021/12/15 09:01:21;;;;;;;14.57;10.23;;;8.40;86.60;;;;;;4984944;28;20844;-47
2021/12/15 09:03:48;;;;;;;15.17;9.43;;;8.40;86.20;;;;;;4988851;28;20461;-47
2021/12/15 09:06:16;;;;;;;15.03;10.07;;;8.40;86.10;;;;;;4994727;28;20469;-47
2021/12/15 09:08:44;;;;;;;12.90;11.30;;;8.50;85.50;;;;;;4992143;28;20468;-47
2021/12/15 09:11:15;;;;;;;19.20;10.80;;;8.50;85.40;;;;;;4991347;28;20476;-47
2021/12/15 09:13:44;;;;;;;17.87;11.27;;;8.60;85.20;;;;;;4990963;28;20850;-47
2021/12/15 09:16:12;;;;;;;13.90;9.77;;;8.60;85.20;;;;;;5004168;28;20474;-47
2021/12/15 09:18:41;;;;;;;18.00;11.10;;;8.60;85.30;;;;;;5003209;28;20492;-47
2021/12/15 09:21:11;;;;;;;15.70;10.57;;;8.70;85.00;;;;;;5002134;28;20464;-47
2021/12/15 09:23:39;;;;;;;16.17;10.20;;;8.70;84.90;;;;;;5001814;28;20483;-47
2021/12/15 09:26:07;;;;;;;14.90;10.03;;;8.70;85.00;;;;;;5002022;28;20464;-47
2021/12/15 09:28:35;;;;;;;14.97;10.83;;;8.70;85.10;;;;;;4998521;28;20452;-47
2021/12/15 09:31:04;;;;;;;16.80;11.27;;;8.80;85.00;;;;;;5006717;28;20455;-47
2021/12/15 09:33:33;;;;;;;13.20;10.83;;;8.90;83.20;;;;;;4985982;28;20527;-47
2021/12/15 09:36:02;;;;;;;15.23;10.60;;;9.00;83.50;;;;;;4984164;28;20453;-47
2021/12/15 09:38:30;;;;;;;14.03;9.60;;;8.90;83.80;;;;;;4999857;28;20584;-47
2021/12/15 09:41:01;;;;;;;13.17;9.77;;;9.00;82.60;;;;;;5001229;28;20463;-47
2021/12/15 09:43:30;;;;;;;14.07;9.50;;;9.00;82.30;;;;;;4980507;28;20502;-46
2021/12/15 09:46:13;;;;;;;16.20;10.83;;;9.10;82.60;;;;;;5002367;28;21002;-47
2021/12/15 09:57:26;;;;;;;16.00;11.97;;;9.30;82.30;;;;;;4998710;28;21067;-47
2021/12/15 10:02:53;;;;;;;17.90;12.20;;;9.40;80.90;;;;;;5000307;28;20979;-47
2021/12/15 10:18:48;;;;;;;13.80;9.70;;;9.40;80.00;;;;;;5001078;28;20495;-47
2021/12/15 10:21:26;;;;;;;17.00;9.93;;;9.40;80.10;;;;;;5003526;28;20495;-47
2021/12/15 10:23:54;;;;;;;16.00;10.53;;;9.40;80.70;;;;;;5001400;28;20469;-47
2021/12/15 10:26:22;;;;;;;14.97;10.47;;;9.40;80.00;;;;;;5002465;28;22594;-47
2021/12/15 10:28:52;;;;;;;15.27;11.37;;;9.40;80.10;;;;;;5003057;28;20981;-47
2021/12/15 10:31:23;;;;;;;18.10;11.70;;;9.40;80.40;;;;;;5003120;28;20542;-47
2021/12/15 10:33:57;;;;;;;21.73;11.40;;;9.40;80.40;;;;;;4996205;28;20879;-47
2021/12/15 10:36:27;;;;;;;18.80;12.50;;;9.30;80.80;;;;;;4999665;28;20483;-47
2021/12/15 10:39:08;;;;;;;19.20;13.00;;;9.30;81.00;;;;;;5001725;28;20831;-47
2021/12/15 10:41:43;;;;;;;17.50;13.67;;;9.40;81.00;;;;;;4998737;28;20464;-47
2021/12/15 10:44:09;;;;;;;21.17;13.10;;;9.40;81.00;;;;;;4986023;28;20456;-47
2021/12/15 10:46:42;;;;;;;28.73;20.07;;;9.50;80.70;;;;;;4999832;28;20456;-47
2021/12/15 10:49:24;;;;;;;20.30;13.03;;;9.50;80.90;;;;;;5003973;28;20460;-47
2021/12/15 10:52:00;;;;;;;17.33;12.40;;;9.50;80.90;;;;;;5001946;28;20575;-47
2021/12/15 10:54:35;;;;;;;15.40;10.67;;;9.50;80.50;;;;;;5001454;28;20456;-47
2021/12/15 10:57:12;;;;;;;14.77;10.30;;;9.50;80.80;;;;;;5002924;28;20466;-47
2021/12/15 10:59:43;;;;;;;15.87;9.63;;;9.50;80.80;;;;;;5002587;28;20480;-47
2021/12/15 11:02:32;;;;;;;12.40;9.67;;;9.50;81.00;;;;;;5001008;28;20441;-47
2021/12/15 11:05:08;;;;;;;16.10;10.30;;;9.60;80.70;;;;;;4996517;28;20844;-47
2021/12/15 11:07:38;;;;;;;11.90;8.33;;;9.60;80.40;;;;;;4998907;28;20478;-47
2021/12/15 11:10:27;;;;;;;14.13;9.50;;;9.60;80.60;;;;;;5000271;28;20464;-47
2021/12/15 11:12:57;;;;;;;15.03;9.60;;;9.70;80.60;;;;;;4985979;28;20465;-47
2021/12/15 11:15:29;;;;;;;14.20;9.63;;;9.70;80.80;;;;;;4983784;28;20783;-47
2021/12/15 11:17:57;;;;;;;15.20;9.17;;;9.70;80.40;;;;;;5001171;28;20489;-47
2021/12/15 11:20:33;;;;;;;14.50;9.30;;;9.80;80.40;;;;;;4997978;28;20973;-47
2021/12/15 11:23:04;;;;;;;12.57;8.40;;;9.80;79.80;;;;;;5002089;28;20459;-47
2021/12/15 11:25:43;;;;;;;13.20;9.40;;;9.80;79.80;;;;;;5001601;28;20986;-47
2021/12/15 11:28:15;;;;;;;14.13;11.20;;;9.80;79.80;;;;;;4999392;28;20554;-47
2021/12/15 11:30:58;;;;;;;16.60;11.53;;;9.90;80.40;;;;;;5000186;28;20911;-47
2021/12/15 11:33:29;;;;;;;18.70;13.40;;;9.90;80.40;;;;;;5001274;28;20465;-47
2021/12/15 11:36:01;;;;;;;18.97;11.77;;;9.90;80.50;;;;;;5002067;28;20457;-47
2021/12/15 11:38:38;;;;;;;14.80;10.87;;;9.90;80.70;;;;;;5001472;28;20486;-47
2021/12/15 11:41:17;;;;;;;14.77;11.00;;;9.90;81.00;;;;;;5001767;28;20457;-47
2021/12/15 11:43:46;;;;;;;16.83;11.53;;;9.90;80.90;;;;;;4998665;28;20522;-47
2021/12/15 11:46:24;;;;;;;18.27;13.00;;;10.00;80.80;;;;;;4994954;28;20448;-47
2021/12/15 11:49:05;;;;;;;15.23;11.00;;;10.00;80.40;;;;;;4998537;28;20472;-47
2021/12/15 11:51:45;;;;;;;16.70;9.23;;;10.00;80.40;;;;;;5002131;28;20463;-47
2021/12/15 11:54:26;;;;;;;15.90;10.33;;;10.00;80.10;;;;;;5001852;28;20465;-47
2021/12/15 11:57:15;;;;;;;15.63;10.40;;;10.00;80.30;;;;;;5000448;28;20487;-47
2021/12/15 11:59:49;;;;;;;17.40;12.43;;;10.00;80.40;;;;;;4997391;28;20496;-47
2021/12/15 12:02:26;;;;;;;17.10;12.03;;;10.10;80.00;;;;;;4998539;28;20459;-47
2021/12/15 12:05:25;;;;;;;11.23;9.70;;;10.10;79.60;;;;;;5000871;28;20556;-47
2021/12/15 12:07:55;;;;;;;15.70;10.03;;;10.20;79.40;;;;;;4982892;28;20473;-47
2021/12/15 12:10:32;;;;;;;15.10;11.10;;;10.10;79.40;;;;;;5002160;28;20539;-47
2021/12/15 12:13:09;;;;;;;16.20;11.80;;;10.10;80.10;;;;;;4979721;28;20467;-47
2021/12/15 12:15:42;;;;;;;19.27;11.67;;;10.10;79.80;;;;;;5004450;28;20464;-48
2021/12/15 12:18:13;;;;;;;17.63;12.20;;;10.10;80.10;;;;;;4981779;28;20999;-48
2021/12/15 12:20:49;;;;;;;16.83;12.23;;;10.10;80.20;;;;;;5002178;28;20502;-48
2021/12/15 12:23:27;;;;;;;18.07;11.37;;;10.20;79.90;;;;;;4999121;28;20969;-48
2021/12/15 12:25:57;;;;;;;13.77;9.60;;;10.20;79.90;;;;;;4996951;28;20458;-48
2021/12/15 12:28:31;;;;;;;14.40;11.00;;;10.10;80.20;;;;;;5000654;28;20889;-48
2021/12/15 12:31:06;;;;;;;17.50;11.20;;;10.20;80.10;;;;;;4986130;28;20970;-48
2021/12/15 12:33:33;;;;;;;15.40;10.63;;;10.20;80.00;;;;;;4988346;28;20488;-48
2021/12/15 12:36:05;;;;;;;19.47;11.93;;;10.20;79.30;;;;;;4979064;28;20457;-48
2021/12/15 12:38:37;;;;;;;18.43;11.17;;;10.20;79.10;;;;;;4984132;28;20468;-48
2021/12/15 12:41:06;;;;;;;19.23;14.30;;;10.20;79.30;;;;;;4985462;28;20464;-48
2021/12/15 12:43:40;;;;;;;19.13;12.47;;;10.10;79.50;;;;;;5000078;28;20541;-48
2021/12/15 12:46:30;;;;;;;20.60;13.00;;;10.10;79.70;;;;;;4986086;28;20534;-48
2021/12/15 13:00:29;;;;;;;16.80;11.43;;;10.20;80.00;;;;;;5002947;28;21156;-48
2021/12/15 13:03:08;;;;;;;16.57;10.87;;;10.20;79.40;;;;;;5000649;28;20836;-48
2021/12/15 13:05:49;;;;;;;18.83;12.60;;;10.20;79.70;;;;;;4999845;28;20464;-48
2021/12/15 13:08:36;;;;;;;13.30;9.50;;;10.20;80.00;;;;;;4986403;28;20466;-48
2021/12/15 13:11:06;;;;;;;14.33;10.00;;;10.30;79.00;;;;;;5003615;28;20530;-48
2021/12/15 13:13:56;;;;;;;14.60;9.37;;;10.20;79.30;;;;;;5006583;28;20580;-48
2021/12/15 13:16:45;;;;;;;13.80;10.30;;;10.20;79.80;;;;;;5000410;28;20444;-48
2021/12/15 13:19:25;;;;;;;12.77;9.60;;;10.20;79.40;;;;;;5001102;28;20492;-48
2021/12/15 13:22:57;;;;;;;16.57;10.80;;;10.30;79.30;;;;;;4982640;28;20453;-48
2021/12/15 13:30:51;;;;;;;12.73;8.57;;;10.20;79.90;;;;;;4997454;28;20468;-49
2021/12/15 13:33:30;;;;;;;11.77;8.43;;;10.20;80.10;;;;;;4984264;28;20459;-46
2021/12/15 13:35:57;;;;;;;13.40;9.00;;;10.20;80.10;;;;;;5001765;28;20459;-47
2021/12/15 13:38:36;;;;;;;12.77;8.40;;;10.20;80.30;;;;;;5001196;28;20475;-46
2021/12/15 13:44:19;;;;;;;12.07;8.70;;;10.30;79.70;;;;;;5002690;28;20464;-47
2021/12/15 13:46:56;;;;;;;11.53;8.57;;;10.30;79.70;;;;;;4996599;28;20923;-46
2021/12/15 13:49:49;;;;;;;11.00;8.10;;;10.20;79.70;;;;;;5000473;28;20467;-47
2021/12/15 13:52:45;;;;;;;13.00;9.10;;;10.10;79.90;;;;;;5000885;28;20456;-47
2021/12/15 13:55:22;;;;;;;12.80;8.20;;;10.20;79.60;;;;;;4986037;28;20798;-46
2021/12/15 13:57:54;;;;;;;13.50;9.13;;;10.20;79.70;;;;;;4999605;28;20624;-47
2021/12/15 14:00:29;;;;;;;10.40;7.93;;;10.10;79.80;;;;;;5001913;28;20500;-47
2021/12/15 14:03:17;;;;;;;12.00;8.10;;;10.10;80.00;;;;;;5001522;28;20460;-47
2021/12/15 14:05:57;;;;;;;11.50;8.40;;;10.10;79.90;;;;;;4999739;28;20471;-47
2021/12/15 14:08:53;;;;;;;12.73;7.60;;;10.10;80.00;;;;;;5004691;28;20850;-47
2021/12/15 14:11:21;;;;;;;10.87;7.07;;;10.00;80.30;;;;;;4999482;28;20515;-47
2021/12/15 14:14:01;;;;;;;11.33;8.47;;;10.10;79.90;;;;;;5005380;28;20452;-47
2021/12/15 14:16:49;;;;;;;12.50;8.70;;;10.00;80.40;;;;;;5002112;28;20463;-47
2021/12/15 14:19:36;;;;;;;12.20;7.70;;;9.90;80.70;;;;;;5001054;28;20460;-47
2021/12/15 14:22:10;;;;;;;13.63;8.77;;;9.90;81.00;;;;;;5000561;28;20463;-47
2021/12/15 14:24:38;;;;;;;10.97;7.63;;;10.00;81.00;;;;;;5002352;28;20468;-47
2021/12/15 14:27:06;;;;;;;15.60;9.53;;;10.00;80.60;;;;;;5003845;28;21158;-47
2021/12/15 14:29:33;;;;;;;13.57;8.70;;;9.90;80.80;;;;;;4987101;28;20482;-47
2021/12/15 14:32:02;;;;;;;11.27;7.50;;;9.90;80.90;;;;;;5004266;28;20457;-47
2021/12/15 14:34:35;;;;;;;13.60;9.73;;;9.90;81.10;;;;;;4998238;28;20838;-47
2021/12/15 14:37:15;;;;;;;14.27;9.07;;;9.90;81.30;;;;;;4986920;28;20989;-47
2021/12/15 14:39:44;;;;;;;14.93;8.70;;;9.90;81.30;;;;;;4984337;28;20848;-47